createdAt,value
2022-10-22T00:01:08.941Z,15.39
2022-10-22T00:03:38.944Z,15.39
2022-10-22T00:06:07.261Z,15.36
2022-10-22T00:08:35.139Z,15.35
2022-10-22T00:11:14.456Z,15.38
2022-10-22T00:13:43.669Z,15.33
2022-10-22T00:16:12.235Z,15.36
2022-10-22T00:18:43.039Z,15.37
2022-10-22T00:21:13.924Z,15.39
2022-10-22T00:23:42.291Z,15.39
2022-10-22T00:26:10.667Z,15.40
2022-10-22T00:28:38.617Z,15.44
2022-10-22T00:31:08.237Z,15.48
2022-10-22T00:33:36.149Z,15.50
2022-10-22T00:36:03.997Z,15.53
2022-10-22T00:38:31.868Z,15.55
2022-10-22T00:40:59.631Z,15.56
2022-10-22T00:43:28.436Z,15.56
2022-10-22T00:45:56.281Z,15.56
2022-10-22T00:48:29.270Z,15.58
2022-10-22T00:51:00.759Z,15.58
2022-10-22T00:53:32.692Z,15.60
2022-10-22T00:56:01.602Z,15.59
2022-10-22T00:58:31.975Z,15.62
2022-10-22T01:01:00.321Z,15.60
2022-10-22T01:03:29.825Z,15.61
2022-10-22T01:06:00.214Z,15.61
2022-10-22T01:08:41.250Z,15.61
2022-10-22T01:11:20.778Z,15.58
2022-10-22T01:13:55.196Z,15.55
2022-10-22T01:16:34.283Z,15.55
2022-10-22T01:19:19.453Z,15.57
2022-10-22T01:21:52.497Z,15.58
2022-10-22T01:24:32.733Z,15.58
2022-10-22T01:27:32.631Z,15.59
2022-10-22T01:30:04.723Z,15.58
2022-10-22T01:32:37.770Z,15.61
2022-10-22T01:35:09.980Z,15.60
2022-10-22T01:37:42.871Z,15.58
2022-10-22T01:40:12.817Z,15.54
2022-10-22T01:42:40.674Z,15.47
2022-10-22T01:45:14.813Z,15.45
2022-10-22T01:47:53.690Z,15.42
2022-10-22T01:50:47.598Z,15.40
2022-10-22T01:53:26.190Z,15.39
2022-10-22T01:56:17.984Z,15.36
2022-10-22T01:58:54.445Z,15.36
2022-10-22T02:01:36.460Z,15.33
2022-10-22T02:04:14.609Z,15.32
2022-10-22T02:06:45.486Z,15.33
2022-10-22T02:09:19.367Z,15.30
2022-10-22T02:11:48.725Z,15.31
2022-10-22T02:14:18.954Z,15.34
2022-10-22T02:16:51.746Z,15.34
2022-10-22T02:19:25.581Z,15.34
2022-10-22T02:21:54.643Z,15.37
2022-10-22T02:24:23.499Z,15.34
2022-10-22T02:27:00.073Z,15.33
2022-10-22T02:29:33.262Z,15.33
2022-10-22T02:32:06.673Z,15.29
2022-10-22T02:34:34.630Z,15.30
2022-10-22T02:37:04.351Z,15.28
2022-10-22T02:39:33.363Z,15.26
2022-10-22T02:42:02.975Z,15.21
2022-10-22T02:44:30.749Z,15.20
2022-10-22T02:46:59.522Z,15.26
2022-10-22T02:49:29.095Z,15.27
2022-10-22T02:51:57.347Z,15.27
2022-10-22T02:54:25.065Z,15.26
2022-10-22T02:56:52.860Z,15.25
2022-10-22T02:59:20.738Z,15.19
2022-10-22T03:01:48.605Z,15.21
2022-10-22T03:04:16.440Z,15.24
2022-10-22T03:06:48.505Z,15.25
2022-10-22T03:09:17.486Z,15.28
2022-10-22T03:11:47.941Z,15.31
2022-10-22T03:14:15.757Z,15.32
2022-10-22T03:16:43.721Z,15.34
2022-10-22T03:19:11.600Z,15.37
2022-10-22T03:21:46.825Z,15.37
2022-10-22T03:24:18.805Z,15.36
2022-10-22T03:26:49.525Z,15.35
2022-10-22T03:29:17.692Z,15.36
2022-10-22T03:31:45.436Z,15.35
2022-10-22T03:34:13.658Z,15.33
2022-10-22T03:36:42.308Z,15.32
2022-10-22T03:39:14.303Z,15.29
2022-10-22T03:41:42.657Z,15.26
2022-10-22T03:44:10.477Z,15.27
2022-10-22T03:46:38.358Z,15.28
2022-10-22T03:49:06.648Z,15.29
2022-10-22T03:51:35.773Z,15.31
2022-10-22T03:54:04.092Z,15.30
2022-10-22T03:56:33.743Z,15.32
2022-10-22T03:59:02.462Z,15.32
2022-10-22T04:01:31.625Z,15.34
2022-10-22T04:04:00.092Z,15.32
2022-10-22T04:06:31.332Z,15.32
2022-10-22T04:09:01.092Z,15.32
2022-10-22T04:11:29.039Z,15.35
2022-10-22T04:13:58.118Z,15.32
2022-10-22T04:16:30.991Z,15.32
2022-10-22T04:18:59.373Z,15.32
2022-10-22T04:21:27.191Z,15.32
2022-10-22T04:23:55.221Z,15.28
2022-10-22T04:26:22.995Z,15.29
2022-10-22T04:28:51.990Z,15.29
2022-10-22T04:31:23.221Z,15.25
2022-10-22T04:33:54.132Z,15.24
2022-10-22T04:36:22.918Z,15.24
2022-10-22T04:38:55.465Z,15.21
2022-10-22T04:41:25.035Z,15.21
2022-10-22T04:43:54.739Z,15.24
2022-10-22T04:46:25.025Z,15.25
2022-10-22T04:48:53.324Z,15.25
2022-10-22T04:51:23.286Z,15.27
2022-10-22T04:53:53.962Z,15.29
2022-10-22T04:56:24.875Z,15.27
2022-10-22T04:58:56.373Z,15.30
2022-10-22T05:01:27.803Z,15.30
2022-10-22T05:03:57.486Z,15.31
2022-10-22T05:06:26.152Z,15.27
2022-10-22T05:08:55.773Z,15.26
2022-10-22T05:11:25.607Z,15.27
2022-10-22T05:13:53.676Z,15.31
2022-10-22T05:16:21.402Z,15.35
2022-10-22T05:18:50.649Z,15.31
2022-10-22T05:21:20.243Z,15.27
2022-10-22T05:23:50.115Z,15.30
2022-10-22T05:26:21.887Z,15.29
2022-10-22T05:28:51.022Z,15.29
2022-10-22T05:31:20.012Z,15.26
2022-10-22T05:33:48.227Z,15.25
2022-10-22T05:36:20.115Z,15.28
2022-10-22T05:38:47.968Z,15.31
2022-10-22T05:41:19.921Z,15.36
2022-10-22T05:43:50.765Z,15.30
2022-10-22T05:46:22.990Z,15.33
2022-10-22T05:48:51.995Z,15.36
2022-10-22T05:51:21.694Z,15.32
2022-10-22T05:53:53.680Z,15.33
2022-10-22T05:56:22.412Z,15.33
2022-10-22T05:58:50.713Z,15.34
2022-10-22T06:01:20.519Z,15.37
2022-10-22T06:03:48.580Z,15.29
2022-10-22T06:06:21.945Z,15.30
2022-10-22T06:08:53.910Z,15.35
2022-10-22T06:11:23.582Z,15.36
2022-10-22T06:13:52.474Z,15.39
2022-10-22T06:16:20.449Z,15.43
2022-10-22T06:18:48.306Z,15.35
2022-10-22T06:21:17.716Z,15.30
2022-10-22T06:23:46.956Z,15.29
2022-10-22T06:26:15.356Z,15.36
2022-10-22T06:28:43.096Z,15.38
2022-10-22T06:31:11.390Z,15.38
2022-10-22T06:33:42.318Z,15.40
2022-10-22T06:36:12.614Z,15.39
2022-10-22T06:38:41.016Z,15.39
2022-10-22T06:41:12.611Z,15.40
2022-10-22T06:43:40.890Z,15.43
2022-10-22T06:46:13.683Z,15.44
2022-10-22T06:48:50.381Z,15.47
2022-10-22T06:51:18.588Z,15.46
2022-10-22T06:53:46.927Z,15.43
2022-10-22T06:56:18.217Z,15.33
2022-10-22T06:58:48.151Z,15.27
2022-10-22T07:01:18.061Z,15.26
2022-10-22T07:03:46.581Z,15.25
2022-10-22T07:06:15.693Z,15.23
2022-10-22T07:08:44.426Z,15.27
2022-10-22T07:11:15.161Z,15.25
2022-10-22T07:13:45.190Z,15.24
2022-10-22T07:16:13.457Z,15.23
2022-10-22T07:18:42.496Z,15.20
2022-10-22T07:21:12.220Z,15.24
2022-10-22T07:23:40.579Z,15.25
2022-10-22T07:26:09.367Z,15.29
2022-10-22T07:28:39.861Z,15.31
2022-10-22T07:31:10.616Z,15.39
2022-10-22T07:33:39.351Z,15.45
2022-10-22T07:36:09.630Z,15.45
2022-10-22T07:38:38.172Z,15.47
2022-10-22T07:41:06.212Z,15.52
2022-10-22T07:43:34.190Z,15.57
2022-10-22T07:46:02.915Z,15.60
2022-10-22T07:48:34.639Z,15.70
2022-10-22T07:51:03.048Z,15.75
2022-10-22T07:53:31.233Z,15.85
2022-10-22T07:55:59.052Z,15.84
2022-10-22T07:58:27.104Z,15.90
2022-10-22T08:00:57.522Z,15.94
2022-10-22T08:03:25.491Z,15.94
2022-10-22T08:05:55.162Z,15.98
2022-10-22T08:08:25.925Z,16.02
2022-10-22T08:10:58.610Z,16.05
2022-10-22T08:13:27.512Z,16.15
2022-10-22T08:15:57.511Z,16.28
2022-10-22T08:18:25.768Z,16.25
2022-10-22T08:20:57.919Z,16.37
2022-10-22T08:23:28.280Z,16.36
2022-10-22T08:25:57.253Z,16.35
2022-10-22T08:28:25.143Z,16.39
2022-10-22T08:30:53.016Z,16.42
2022-10-22T08:33:20.862Z,16.63
2022-10-22T08:35:49.479Z,16.56
2022-10-22T08:38:19.463Z,16.71
2022-10-22T08:40:50.903Z,16.71
2022-10-22T08:43:38.379Z,16.78
2022-10-22T08:46:20.517Z,16.81
2022-10-22T08:48:53.015Z,16.88
2022-10-22T08:51:24.378Z,17.05
2022-10-22T08:54:11.561Z,17.08
2022-10-22T08:56:44.334Z,17.09
2022-10-22T08:59:18.883Z,17.17
2022-10-22T09:01:49.880Z,17.32
2022-10-22T09:04:25.354Z,17.55
2022-10-22T09:06:54.595Z,17.63
2022-10-22T09:09:28.748Z,17.79
2022-10-22T09:12:00.120Z,17.99
2022-10-22T09:14:29.893Z,17.97
2022-10-22T09:17:14.364Z,18.05
2022-10-22T09:19:56.340Z,18.07
2022-10-22T09:25:20.286Z,18.13
2022-10-22T09:27:49.375Z,18.10
2022-10-22T09:30:18.914Z,18.10
2022-10-22T09:32:47.110Z,18.23
2022-10-22T09:35:16.058Z,18.29
2022-10-22T09:37:53.090Z,18.35
2022-10-22T09:40:22.936Z,18.37
2022-10-22T09:42:50.905Z,18.35
2022-10-22T09:45:25.246Z,18.38
2022-10-22T09:48:11.038Z,18.41
2022-10-22T09:50:44.269Z,18.44
2022-10-22T09:53:18.336Z,18.48
2022-10-22T09:55:52.179Z,18.50
2022-10-22T09:58:20.607Z,18.61
2022-10-22T10:00:54.587Z,18.67
2022-10-22T10:03:25.394Z,18.72
2022-10-22T10:05:55.845Z,18.68
2022-10-22T10:08:27.146Z,18.76
2022-10-22T10:11:01.122Z,18.78
2022-10-22T10:13:43.375Z,18.81
2022-10-22T10:16:27.450Z,18.84
2022-10-22T10:19:14.138Z,18.92
2022-10-22T10:21:51.738Z,18.91
2022-10-22T10:24:27.170Z,18.99
2022-10-22T10:27:02.816Z,19.02
2022-10-22T10:29:45.648Z,19.04
2022-10-22T10:32:28.939Z,19.07
2022-10-22T10:35:07.891Z,19.11
2022-10-22T10:37:42.156Z,19.16
2022-10-22T10:40:25.457Z,19.21
2022-10-22T10:43:00.040Z,19.26
2022-10-22T10:45:34.336Z,19.34
2022-10-22T10:48:13.248Z,19.39
2022-10-22T10:50:53.760Z,19.39
2022-10-22T10:53:35.612Z,19.42
2022-10-22T10:56:17.455Z,19.44
2022-10-22T10:58:57.198Z,19.48
2022-10-22T11:01:30.820Z,19.58
2022-10-22T11:04:22.884Z,19.72
2022-10-22T11:06:56.356Z,19.93
2022-10-22T11:09:37.510Z,19.97
2022-10-22T11:12:11.978Z,20.00
2022-10-22T11:14:50.587Z,20.12
2022-10-22T11:17:19.390Z,20.24
2022-10-22T11:19:57.835Z,20.26
2022-10-22T11:22:33.296Z,20.36
2022-10-22T11:25:06.767Z,20.49
2022-10-22T11:27:40.733Z,20.49
2022-10-22T11:30:14.969Z,20.60
2022-10-22T11:32:45.623Z,20.74
2022-10-22T11:35:18.208Z,20.91
2022-10-22T11:37:49.280Z,20.78
2022-10-22T11:40:21.119Z,20.79
2022-10-22T11:42:51.685Z,20.72
2022-10-22T11:45:32.361Z,20.56
2022-10-22T11:48:08.861Z,20.41
2022-10-22T11:50:50.675Z,20.33
2022-10-22T11:53:21.057Z,20.17
2022-10-22T11:55:51.576Z,20.11
2022-10-22T11:58:44.646Z,20.09
2022-10-22T12:01:41.467Z,20.18
2022-10-22T12:04:23.595Z,20.26
2022-10-22T12:07:00.558Z,20.21
2022-10-22T12:09:32.650Z,20.26
2022-10-22T12:12:15.971Z,20.42
2022-10-22T12:14:55.269Z,20.69
2022-10-22T12:17:25.194Z,21.03
2022-10-22T12:20:02.218Z,21.31
2022-10-22T12:22:32.904Z,21.50
2022-10-22T12:25:03.134Z,21.48
2022-10-22T12:27:36.702Z,21.49
2022-10-22T12:30:19.182Z,21.38
2022-10-22T12:32:48.419Z,21.57
2022-10-22T12:35:19.814Z,21.78
2022-10-22T12:37:51.164Z,21.97
2022-10-22T12:40:21.527Z,22.00
2022-10-22T12:42:51.273Z,21.89
2022-10-22T12:45:19.865Z,21.60
2022-10-22T12:47:49.539Z,21.49
2022-10-22T12:50:20.752Z,21.37
2022-10-22T12:52:50.200Z,21.18
2022-10-22T12:55:19.363Z,21.19
2022-10-22T12:57:50.345Z,21.15
2022-10-22T13:00:24.626Z,21.14
2022-10-22T13:02:54.599Z,21.15
2022-10-22T13:05:27.252Z,21.28
2022-10-22T13:08:02.893Z,21.72
2022-10-22T13:10:34.221Z,22.07
2022-10-22T13:13:03.236Z,22.53
2022-10-22T13:15:39.126Z,22.75
2022-10-22T13:18:19.539Z,23.32
2022-10-22T13:20:56.419Z,24.34
2022-10-22T13:23:25.795Z,24.72
2022-10-22T13:26:02.617Z,24.18
2022-10-22T13:28:33.081Z,23.45
2022-10-22T13:31:02.413Z,23.09
2022-10-22T13:33:35.363Z,22.71
2022-10-22T13:36:07.180Z,22.41
2022-10-22T13:38:35.141Z,22.11
2022-10-22T13:41:03.171Z,21.89
2022-10-22T13:43:31.073Z,21.75
2022-10-22T13:46:00.989Z,21.65
2022-10-22T13:48:31.476Z,21.55
2022-10-22T13:51:00.776Z,21.46
2022-10-22T13:53:31.197Z,21.29
2022-10-22T13:55:59.191Z,21.20
2022-10-22T13:58:27.111Z,21.11
2022-10-22T14:00:57.067Z,20.99
2022-10-22T14:03:28.077Z,21.08
2022-10-22T14:05:56.109Z,21.23
2022-10-22T14:08:27.194Z,21.35
2022-10-22T14:10:55.404Z,21.25
2022-10-22T14:13:23.391Z,21.01
2022-10-22T14:15:52.797Z,20.86
2022-10-22T14:18:25.478Z,20.93
2022-10-22T14:20:56.080Z,21.05
2022-10-22T14:23:28.365Z,21.19
2022-10-22T14:25:56.397Z,21.32
2022-10-22T14:28:24.224Z,21.26
2022-10-22T14:30:53.638Z,21.27
2022-10-22T14:33:28.817Z,21.49
2022-10-22T14:35:59.861Z,21.20
2022-10-22T14:38:29.070Z,21.06
2022-10-22T14:40:57.711Z,20.92
2022-10-22T14:43:28.002Z,20.82
2022-10-22T14:45:56.384Z,20.67
2022-10-22T14:48:24.544Z,20.52
2022-10-22T14:50:52.714Z,20.47
2022-10-22T14:53:20.538Z,20.43
2022-10-22T14:55:51.409Z,20.42
2022-10-22T14:58:19.268Z,20.33
2022-10-22T15:00:47.326Z,20.37
2022-10-22T15:03:15.073Z,20.31
2022-10-22T15:05:44.792Z,20.27
2022-10-22T15:08:14.088Z,20.20
2022-10-22T15:10:42.060Z,20.21
2022-10-22T15:13:11.337Z,20.08
2022-10-22T15:15:41.218Z,20.11
2022-10-22T15:18:09.057Z,20.17
2022-10-22T15:20:36.908Z,20.17
2022-10-22T15:23:04.948Z,20.32
2022-10-22T15:25:32.829Z,20.35
2022-10-22T15:28:02.082Z,20.40
2022-10-22T15:30:36.701Z,20.39
2022-10-22T15:33:04.499Z,20.25
2022-10-22T15:35:32.371Z,20.17
2022-10-22T15:38:00.164Z,20.08
2022-10-22T15:40:29.602Z,19.94
2022-10-22T15:42:57.324Z,19.84
2022-10-22T15:45:45.431Z,19.81
2022-10-22T15:48:15.439Z,19.70
2022-10-22T15:50:43.454Z,19.55
2022-10-22T15:53:11.406Z,19.40
2022-10-22T15:55:39.294Z,19.30
2022-10-22T15:58:07.207Z,19.16
2022-10-22T16:00:35.101Z,19.04
2022-10-22T16:03:04.294Z,18.93
2022-10-22T16:05:32.131Z,18.87
2022-10-22T16:07:59.881Z,18.78
2022-10-22T16:10:28.061Z,18.70
2022-10-22T16:12:57.641Z,18.64
2022-10-22T16:15:25.532Z,18.58
2022-10-22T16:17:53.272Z,18.50
2022-10-22T16:20:22.470Z,18.47
2022-10-22T16:22:51.090Z,18.41
2022-10-22T16:25:19.101Z,18.34
2022-10-22T16:27:50.623Z,18.25
2022-10-22T16:30:18.719Z,18.16
2022-10-22T16:33:07.248Z,18.08
2022-10-22T16:35:41.284Z,18.02
2022-10-22T16:38:10.157Z,17.96
2022-10-22T16:40:38.133Z,17.91
2022-10-22T16:43:06.153Z,17.83
2022-10-22T16:45:34.064Z,17.78
2022-10-22T16:48:01.878Z,17.73
2022-10-22T16:50:29.727Z,17.67
2022-10-22T16:52:58.917Z,17.60
2022-10-22T16:55:29.153Z,17.57
2022-10-22T16:57:56.957Z,17.50
2022-10-22T17:00:24.948Z,17.44
2022-10-22T17:02:53.884Z,17.40
2022-10-22T17:05:22.326Z,17.34
2022-10-22T17:07:50.959Z,17.28
2022-10-22T17:10:21.190Z,17.22
2022-10-22T17:12:49.550Z,17.18
2022-10-22T17:15:17.740Z,17.13
2022-10-22T17:17:48.334Z,17.06
2022-10-22T17:20:19.246Z,17.00
2022-10-22T17:22:47.330Z,16.95
2022-10-22T17:25:17.562Z,16.87
2022-10-22T17:27:46.797Z,16.77
2022-10-22T17:30:17.619Z,16.72
2022-10-22T17:32:45.792Z,16.68
2022-10-22T17:35:15.830Z,16.60
2022-10-22T17:37:44.438Z,16.54
2022-10-22T17:40:14.468Z,16.52
2022-10-22T17:42:42.909Z,16.49
2022-10-22T17:45:12.360Z,16.45
2022-10-22T17:47:40.772Z,16.38
2022-10-22T17:50:10.045Z,16.35
2022-10-22T17:52:38.231Z,16.32
2022-10-22T17:55:06.710Z,16.23
2022-10-22T17:57:34.598Z,16.20
2022-10-22T18:00:02.433Z,16.15
2022-10-22T18:02:34.085Z,16.12
2022-10-22T18:05:01.893Z,16.10
2022-10-22T18:07:29.913Z,16.07
2022-10-22T18:09:57.743Z,16.04
2022-10-22T18:12:25.724Z,16.01
2022-10-22T18:14:53.733Z,15.96
2022-10-22T18:17:21.595Z,15.92
2022-10-22T18:19:50.830Z,15.89
2022-10-22T18:22:18.746Z,15.84
2022-10-22T18:24:48.582Z,15.80
2022-10-22T18:27:16.459Z,15.78
2022-10-22T18:29:49.860Z,15.74
2022-10-22T18:32:17.814Z,15.73
2022-10-22T18:34:45.663Z,15.73
2022-10-22T18:37:14.818Z,15.70
2022-10-22T18:39:42.721Z,15.68
2022-10-22T18:42:10.584Z,15.68
2022-10-22T18:44:38.558Z,15.66
2022-10-22T18:47:08.540Z,15.62
2022-10-22T18:49:38.992Z,15.59
2022-10-22T18:52:06.946Z,15.56
2022-10-22T18:54:36.782Z,15.53
2022-10-22T18:57:06.981Z,15.52
2022-10-22T18:59:34.859Z,15.50
2022-10-22T19:02:02.771Z,15.46
2022-10-22T19:04:36.905Z,15.43
2022-10-22T19:09:39.015Z,15.42
2022-10-22T19:12:07.128Z,15.43
2022-10-22T19:14:34.927Z,15.40
2022-10-22T19:17:04.862Z,15.35
2022-10-22T19:19:35.778Z,15.31
2022-10-22T19:22:04.591Z,15.28
2022-10-22T19:24:32.437Z,15.25
2022-10-22T19:27:03.788Z,15.22
2022-10-22T19:29:31.673Z,15.24
2022-10-22T19:32:02.134Z,15.23
2022-10-22T19:34:30.373Z,15.21
2022-10-22T19:36:58.987Z,15.19
2022-10-22T19:39:28.813Z,15.18
2022-10-22T19:41:57.176Z,15.17
2022-10-22T19:44:26.471Z,15.16
2022-10-22T19:46:54.487Z,15.14
2022-10-22T19:49:23.136Z,15.13
2022-10-22T19:51:51.167Z,15.11
2022-10-22T19:54:20.339Z,15.10
2022-10-22T19:56:50.913Z,15.08
2022-10-22T19:59:20.570Z,15.05
2022-10-22T20:01:49.898Z,15.00
2022-10-22T20:04:18.908Z,14.95
2022-10-22T20:06:47.242Z,14.90
2022-10-22T20:09:15.193Z,14.87
2022-10-22T20:11:43.297Z,14.80
2022-10-22T20:14:11.256Z,14.79
2022-10-22T20:16:39.186Z,14.78
2022-10-22T20:19:16.111Z,14.76
2022-10-22T20:21:45.090Z,14.76
2022-10-22T20:24:13.434Z,14.75
2022-10-22T20:26:41.279Z,14.73
2022-10-22T20:29:09.421Z,14.71
2022-10-22T20:31:37.255Z,14.70
2022-10-22T20:34:05.190Z,14.67
2022-10-22T20:36:34.445Z,14.64
2022-10-22T20:39:06.696Z,14.61
2022-10-22T20:41:37.643Z,14.58
2022-10-22T20:44:05.997Z,14.54
2022-10-22T20:46:36.065Z,14.50
2022-10-22T20:49:10.089Z,14.47
2022-10-22T20:51:39.787Z,14.43
2022-10-22T20:54:09.096Z,14.42
2022-10-22T20:56:38.856Z,14.39
2022-10-22T20:59:08.341Z,14.37
2022-10-22T21:01:39.530Z,14.34
2022-10-22T21:04:08.459Z,14.31
2022-10-22T21:06:38.123Z,14.31
2022-10-22T21:09:08.231Z,14.27
2022-10-22T21:11:37.278Z,14.26
2022-10-22T21:14:05.882Z,14.25
2022-10-22T21:16:34.038Z,14.24
2022-10-22T21:19:02.389Z,14.20
2022-10-22T21:21:30.227Z,14.22
2022-10-22T21:23:58.011Z,14.21
2022-10-22T21:26:27.259Z,14.21
2022-10-22T21:28:55.055Z,14.23
2022-10-22T21:31:25.870Z,14.22
2022-10-22T21:33:54.637Z,14.19
2022-10-22T21:36:23.761Z,14.20
2022-10-22T21:38:52.366Z,14.20
2022-10-22T21:41:22.282Z,14.20
2022-10-22T21:43:52.055Z,14.18
2022-10-22T21:46:22.415Z,14.14
2022-10-22T21:48:54.358Z,14.08
2022-10-22T21:51:23.677Z,14.07
2022-10-22T21:56:26.528Z,14.02
2022-10-22T21:58:56.358Z,14.04
2022-10-22T22:01:24.351Z,14.04
2022-10-22T22:03:53.310Z,14.02
2022-10-22T22:06:28.356Z,14.01
2022-10-22T22:09:03.818Z,14.00
2022-10-22T22:11:32.510Z,13.96
2022-10-22T22:14:01.682Z,13.92
2022-10-22T22:16:32.637Z,13.90
2022-10-22T22:21:32.633Z,13.83
2022-10-22T22:24:00.431Z,13.78
2022-10-22T22:26:30.383Z,13.78
2022-10-22T22:28:59.143Z,13.74
2022-10-22T22:31:30.203Z,13.73
2022-10-22T22:34:03.044Z,13.72
2022-10-22T22:36:35.214Z,13.68
2022-10-22T22:39:03.723Z,13.66
2022-10-22T22:41:31.640Z,13.63
2022-10-22T22:43:59.492Z,13.60
2022-10-22T22:46:28.625Z,13.53
2022-10-22T22:48:56.677Z,13.53
2022-10-22T22:51:25.469Z,13.50
2022-10-22T22:53:53.227Z,13.46
2022-10-22T22:56:23.355Z,13.45
2022-10-22T22:58:51.601Z,13.42
2022-10-22T23:01:21.715Z,13.38
2022-10-22T23:03:56.615Z,13.35
2022-10-22T23:06:26.223Z,13.36
2022-10-22T23:08:54.736Z,13.35
2022-10-22T23:11:23.721Z,13.32
2022-10-22T23:13:55.041Z,13.30
2022-10-22T23:16:24.582Z,13.27
2022-10-22T23:18:54.397Z,13.23
2022-10-22T23:21:24.496Z,13.22
2022-10-22T23:23:54.517Z,13.19
2022-10-22T23:26:24.125Z,13.19
2022-10-22T23:28:54.324Z,13.16
2022-10-22T23:31:24.450Z,13.15
2022-10-22T23:33:53.720Z,13.12
2022-10-22T23:36:21.703Z,13.08
2022-10-22T23:38:51.921Z,13.06
2022-10-22T23:41:19.642Z,13.01
2022-10-22T23:43:47.494Z,12.96
2022-10-22T23:46:15.413Z,12.84
2022-10-22T23:48:43.644Z,12.85
2022-10-22T23:51:14.913Z,12.86
2022-10-22T23:53:44.482Z,12.84
2022-10-22T23:56:15.177Z,12.84
2022-10-22T23:58:43.864Z,12.84
